Longview, TX (75605)

11:57 PM CDT on July 23, 2016 (GMT -0500)
Spring Hill | | Change Station

Elev 397 ft 32.57 °N, 94.79 °W | Updated 10 seconds ago

Clear
Clear
74.8 °F
Feels Like 72 °F
N
0.0
Wind Variable Wind from West
Gusts 0.0 mph

Today
High -- | Low -- °F
--% Chance of Precip.
Yesterday
High -- | Low -- °F
Precip. -- in
Pressure 29.90 in
Visibility 10.0 miles
Clouds Clear
Heat Index 72 °F
Dew Point 74 °F
Humidity 97%
Rainfall 0.30 in
Snow Depth Not available.
6:27 AM 8:23 PM
Waning Gibbous, 79% visible
METAR KGGG 240453Z AUTO 00000KT 10SM CLR 24/23 A2992 RMK AO2 SLP123 T02390228
Pressure 29.90 in
Visibility 10.0 miles
Clouds Clear
Heat Index 72 °F
Dew Point 74 °F
Humidity 97%
Rainfall 0.30 in
Snow Depth Not available.
6:27 AM 8:23 PM
Waning Gibbous, 79% visible
METAR KGGG 240453Z AUTO 00000KT 10SM CLR 24/23 A2992 RMK AO2 SLP123 T02390228

10-Day Weather Forecast

Almanac

Astronomy

Jul. 23, 2016 Rise Set
Actual Time
Civil Twilight
Nautical Twilight
Astronomical Twilight
Moon
Length of Visible Light
Length of Day
Tomorrow will be .
, % of the Moon is Illuminated

Today's Extremes

State Highs State Lows

Community

WunderPhotos

Upload Photos

1,927,030 photos uploaded!

WunderBlog® & News

Nearby

Air Quality

  Air Quality AQ Index Pollutant
Not available.

Snow Depth

Station Depth Elevation

Earthquake Activity

City Distance Mag. Time & Date
Minimum magnitude displayed is 2.5.

Coastal Water Temperatures

Place Temperature

Stations

Nearby Weather Stations

Station Location Temp. Windchill Dew Point Humidity Wind Precip. Elev Updated Type
                   

Watches & Warnings

There are currently no watches in effect.